Time;durP1;ratioP1;P1;durP2;ratioP2;P2;SDS_P1;SDS_P2;PMS_P1;PMS_P2;Temp;Humidity;BMP_temperature;BMP_pressure;BME280_temperature;BME280_humidity;BME280_pressure;Samples;Min_cycle;Max_cycle;Signal;HPM_P1;HPM_P2
2023/11/11 00:02:02;;;;;;;9.30;4.30;;;5.20;99.90;;;;;;5005078;28;20050;-59
2023/11/11 00:04:28;;;;;;;10.82;4.05;;;5.20;99.90;;;;;;4997020;28;20059;-59
2023/11/11 00:06:55;;;;;;;8.75;3.97;;;5.20;99.90;;;;;;4997300;28;20133;-60
2023/11/11 00:09:22;;;;;;;8.70;4.43;;;5.20;99.90;;;;;;4997062;28;20369;-60
2023/11/11 00:11:49;;;;;;;10.23;5.10;;;5.10;99.90;;;;;;4996838;28;20383;-60
2023/11/11 00:14:17;;;;;;;11.00;5.45;;;5.10;99.90;;;;;;4996467;28;20042;-60
2023/11/11 00:16:44;;;;;;;7.65;4.10;;;5.10;99.90;;;;;;4996931;28;20122;-60
2023/11/11 00:19:13;;;;;;;6.95;3.78;;;5.10;99.90;;;;;;4996771;28;20502;-60
2023/11/11 00:21:42;;;;;;;6.00;3.90;;;5.10;99.90;;;;;;4995836;28;20050;-60
2023/11/11 00:24:09;;;;;;;7.45;3.67;;;5.10;99.90;;;;;;4996723;28;20046;-60
2023/11/11 00:26:36;;;;;;;5.55;3.10;;;5.10;99.90;;;;;;4996615;28;20058;-60
2023/11/11 00:29:03;;;;;;;5.60;3.50;;;5.10;99.90;;;;;;4996406;28;20511;-60
2023/11/11 00:31:33;;;;;;;8.48;3.75;;;5.00;99.90;;;;;;4995480;28;20097;-59
2023/11/11 00:34:00;;;;;;;6.80;3.08;;;5.00;99.90;;;;;;4996720;28;20052;-60
2023/11/11 00:36:27;;;;;;;7.30;3.80;;;5.00;99.90;;;;;;4996554;28;20395;-60
2023/11/11 00:38:54;;;;;;;6.70;2.70;;;5.00;99.90;;;;;;4996381;28;20046;-60
2023/11/11 00:41:21;;;;;;;4.85;2.75;;;5.00;99.90;;;;;;5003745;28;20371;-60
2023/11/11 00:43:47;;;;;;;6.85;2.53;;;5.10;99.90;;;;;;4993440;28;20483;-60
2023/11/11 00:46:14;;;;;;;6.20;2.83;;;5.10;99.90;;;;;;4999535;28;20061;-60
2023/11/11 00:48:41;;;;;;;6.53;2.95;;;5.10;99.90;;;;;;5015238;28;20426;-60
2023/11/11 00:51:08;;;;;;;6.95;3.10;;;5.10;99.90;;;;;;5016003;28;20049;-60
2023/11/11 00:53:35;;;;;;;7.28;2.55;;;5.10;99.90;;;;;;5014319;28;20479;-60
2023/11/11 00:56:01;;;;;;;5.13;3.15;;;5.10;99.90;;;;;;5014487;28;20053;-60
2023/11/11 00:58:30;;;;;;;6.22;2.60;;;5.00;99.90;;;;;;5000626;28;20038;-60
2023/11/11 01:00:57;;;;;;;7.32;3.13;;;5.00;99.90;;;;;;4992514;28;20057;-59
2023/11/11 01:03:24;;;;;;;9.88;3.13;;;5.00;99.90;;;;;;4992818;28;20058;-59
2023/11/11 01:05:51;;;;;;;6.35;3.08;;;5.00;99.90;;;;;;4994437;28;20483;-59
2023/11/11 01:08:18;;;;;;;7.93;3.10;;;5.00;99.90;;;;;;4994668;28;20046;-60
2023/11/11 01:10:45;;;;;;;5.45;3.30;;;5.00;99.90;;;;;;4994949;28;20055;-59
2023/11/11 01:13:12;;;;;;;5.68;2.80;;;5.00;99.90;;;;;;4996256;28;20046;-59
2023/11/11 01:15:38;;;;;;;5.22;2.83;;;5.00;99.90;;;;;;4994912;28;20050;-59
2023/11/11 01:18:05;;;;;;;6.47;3.10;;;4.90;99.90;;;;;;4995306;28;20734;-59
2023/11/11 01:20:32;;;;;;;5.20;3.35;;;5.00;99.90;;;;;;4994216;28;20491;-60
2023/11/11 01:22:59;;;;;;;8.27;2.97;;;4.90;99.90;;;;;;4995465;28;20054;-60
2023/11/11 01:25:26;;;;;;;7.68;3.00;;;4.90;99.90;;;;;;4993855;28;20126;-59
2023/11/11 01:27:53;;;;;;;8.07;3.22;;;4.90;99.90;;;;;;4994302;28;20052;-59
2023/11/11 01:30:20;;;;;;;6.00;2.78;;;4.90;99.90;;;;;;4994920;28;20030;-58
2023/11/11 01:32:47;;;;;;;7.68;3.13;;;4.90;99.90;;;;;;4995291;28;20507;-60
2023/11/11 01:35:14;;;;;;;8.50;2.78;;;4.90;99.90;;;;;;4994997;28;20046;-59
2023/11/11 01:37:41;;;;;;;10.25;3.08;;;4.90;99.90;;;;;;4995362;28;20043;-59
2023/11/11 01:40:08;;;;;;;5.63;2.75;;;4.90;99.90;;;;;;4995239;28;20042;-59
2023/11/11 01:42:35;;;;;;;7.03;3.67;;;4.90;99.90;;;;;;4997689;28;20127;-60
2023/11/11 01:45:02;;;;;;;5.82;2.80;;;4.90;99.90;;;;;;5014699;28;20038;-58
2023/11/11 01:47:28;;;;;;;7.13;3.08;;;4.90;99.90;;;;;;4996925;28;20486;-59
2023/11/11 01:49:55;;;;;;;5.43;3.45;;;4.90;99.90;;;;;;4997271;28;20049;-57
2023/11/11 01:52:22;;;;;;;6.70;2.97;;;4.80;99.90;;;;;;5014421;28;20398;-59
2023/11/11 01:54:49;;;;;;;7.28;2.88;;;4.80;99.90;;;;;;5014564;28;20046;-60
2023/11/11 01:57:16;;;;;;;6.30;3.08;;;4.80;99.90;;;;;;4996755;28;20050;-60
2023/11/11 01:59:43;;;;;;;8.20;2.97;;;4.70;99.90;;;;;;4996948;28;20073;-59
2023/11/11 02:02:11;;;;;;;7.15;3.10;;;4.70;99.90;;;;;;4999047;28;20096;-59
2023/11/11 02:04:38;;;;;;;7.70;3.50;;;4.70;99.90;;;;;;5016146;28;20034;-61
2023/11/11 02:07:05;;;;;;;7.20;3.30;;;4.70;99.90;;;;;;4996788;28;20100;-59
2023/11/11 02:09:33;;;;;;;7.40;3.35;;;4.70;99.90;;;;;;5014232;28;20038;-59
2023/11/11 02:12:00;;;;;;;6.40;3.05;;;4.70;99.90;;;;;;5014616;28;20046;-60
2023/11/11 02:14:27;;;;;;;6.78;3.28;;;4.70;99.90;;;;;;4996764;28;20438;-59
2023/11/11 02:16:55;;;;;;;5.70;3.15;;;4.70;99.90;;;;;;4996940;28;20038;-59
2023/11/11 02:19:22;;;;;;;8.43;3.28;;;4.70;99.90;;;;;;5014396;28;20042;-60
2023/11/11 02:21:49;;;;;;;6.97;3.10;;;4.60;99.90;;;;;;5014314;28;20042;-58
2023/11/11 02:24:16;;;;;;;7.13;3.13;;;4.60;99.90;;;;;;5013798;28;20073;-59
2023/11/11 02:26:43;;;;;;;8.05;3.90;;;4.60;99.90;;;;;;5014332;28;20042;-60
2023/11/11 02:29:09;;;;;;;7.50;3.20;;;4.60;99.90;;;;;;5013854;28;20042;-59
2023/11/11 02:31:36;;;;;;;5.22;3.10;;;4.60;99.90;;;;;;5013902;28;20042;-59
2023/11/11 02:34:03;;;;;;;6.45;3.40;;;4.60;99.90;;;;;;5013877;28;20049;-59
2023/11/11 02:36:30;;;;;;;5.85;2.88;;;4.60;99.90;;;;;;4999960;28;20543;-60
2023/11/11 02:38:57;;;;;;;6.63;3.13;;;4.60;99.90;;;;;;4994649;28;20046;-59
2023/11/11 02:41:24;;;;;;;6.32;3.08;;;4.60;99.90;;;;;;4994816;28;20054;-59
2023/11/11 02:43:51;;;;;;;7.45;2.70;;;4.60;99.90;;;;;;4994222;28;20443;-59
2023/11/11 02:46:18;;;;;;;4.95;2.85;;;4.60;99.90;;;;;;4994600;28;20043;-58
2023/11/11 02:48:47;;;;;;;6.30;2.85;;;4.60;99.90;;;;;;4994055;28;20038;-60
2023/11/11 02:51:14;;;;;;;7.80;2.70;;;4.70;99.90;;;;;;4993327;28;20542;-59
2023/11/11 02:53:41;;;;;;;5.95;3.10;;;4.60;99.90;;;;;;4994380;28;20054;-59
2023/11/11 02:56:09;;;;;;;5.20;2.78;;;4.70;99.90;;;;;;4993284;28;20121;-59
2023/11/11 02:58:36;;;;;;;11.13;3.47;;;4.70;99.90;;;;;;4992856;28;20038;-57
2023/11/11 03:01:03;;;;;;;8.57;3.10;;;4.70;99.90;;;;;;4994300;28;20435;-60
2023/11/11 03:03:30;;;;;;;6.68;2.83;;;4.70;99.90;;;;;;4994287;28;20472;-59
2023/11/11 03:05:57;;;;;;;9.70;2.92;;;4.70;99.90;;;;;;4994470;28;20133;-60
2023/11/11 03:08:24;;;;;;;8.50;3.33;;;4.70;99.90;;;;;;4992588;28;20046;-59
2023/11/11 03:10:52;;;;;;;7.45;2.88;;;4.70;99.90;;;;;;4994458;28;20046;-60
2023/11/11 03:13:19;;;;;;;7.95;3.03;;;4.70;99.90;;;;;;4995880;28;20045;-60
2023/11/11 03:15:46;;;;;;;6.25;3.05;;;4.70;99.90;;;;;;4997738;28;20038;-59
2023/11/11 03:18:13;;;;;;;9.15;2.88;;;4.70;99.90;;;;;;4998040;28;20042;-60
2023/11/11 03:20:40;;;;;;;6.90;3.90;;;4.70;99.90;;;;;;4998266;28;20218;-60
2023/11/11 03:23:07;;;;;;;7.40;2.90;;;4.70;99.90;;;;;;4997808;28;20046;-59
2023/11/11 03:25:34;;;;;;;5.75;2.90;;;4.70;99.90;;;;;;4997392;28;20038;-59
2023/11/11 03:28:01;;;;;;;5.40;3.13;;;4.70;99.90;;;;;;4996095;28;20038;-59
2023/11/11 03:30:28;;;;;;;7.40;3.13;;;4.70;99.90;;;;;;4997304;28;20038;-60
2023/11/11 03:32:55;;;;;;;6.82;2.80;;;4.70;99.90;;;;;;4996172;28;20487;-59
2023/11/11 03:35:22;;;;;;;7.18;2.80;;;4.70;99.90;;;;;;4997517;28;20105;-60
2023/11/11 03:37:49;;;;;;;8.00;2.85;;;4.70;99.90;;;;;;4997301;28;20050;-60
2023/11/11 03:40:16;;;;;;;6.78;3.17;;;4.70;99.90;;;;;;4997611;28;20050;-59
2023/11/11 03:42:43;;;;;;;7.75;2.90;;;4.70;99.90;;;;;;4995672;28;20090;-60
2023/11/11 03:45:10;;;;;;;8.43;3.30;;;4.70;99.90;;;;;;4997920;28;20065;-60
2023/11/11 03:47:39;;;;;;;9.82;4.38;;;4.70;99.90;;;;;;4997641;28;20038;-60
2023/11/11 03:50:06;;;;;;;5.22;2.70;;;4.60;99.90;;;;;;4997123;28;20046;-59
2023/11/11 03:52:32;;;;;;;7.65;2.80;;;4.60;99.90;;;;;;4996235;28;20039;-59
2023/11/11 03:54:59;;;;;;;8.43;3.25;;;4.60;99.90;;;;;;4997479;28;20073;-59
2023/11/11 03:57:26;;;;;;;4.78;2.65;;;4.70;99.90;;;;;;4997464;28;20043;-60
2023/11/11 03:59:54;;;;;;;8.43;2.70;;;4.70;99.90;;;;;;4996045;28;20054;-60
2023/11/11 04:02:21;;;;;;;7.10;2.80;;;4.70;99.90;;;;;;4995889;28;20468;-59
2023/11/11 04:04:48;;;;;;;6.45;3.00;;;4.60;99.90;;;;;;4996743;28;20038;-60
2023/11/11 04:07:16;;;;;;;6.28;2.95;;;4.60;99.90;;;;;;4997050;28;20435;-59
2023/11/11 04:09:43;;;;;;;6.50;3.13;;;4.60;99.90;;;;;;4996017;28;20050;-60
2023/11/11 04:12:11;;;;;;;6.90;3.42;;;4.60;99.90;;;;;;4997414;28;20042;-60
2023/11/11 04:14:38;;;;;;;6.30;2.85;;;4.50;99.90;;;;;;4997109;28;20464;-60
2023/11/11 04:17:05;;;;;;;4.75;3.20;;;4.60;99.90;;;;;;4997167;28;20035;-58
2023/11/11 04:19:31;;;;;;;8.85;3.10;;;4.50;99.90;;;;;;4995235;28;20082;-59
2023/11/11 04:21:58;;;;;;;5.43;2.90;;;4.50;99.90;;;;;;4996666;28;20034;-59
2023/11/11 04:24:25;;;;;;;10.13;2.83;;;4.40;99.90;;;;;;4995525;28;20046;-60
2023/11/11 04:26:52;;;;;;;7.40;3.20;;;4.40;99.90;;;;;;4995156;28;20046;-60
2023/11/11 04:29:19;;;;;;;5.10;2.88;;;4.40;99.90;;;;;;5023720;28;20047;-59
2023/11/11 04:31:46;;;;;;;6.05;3.03;;;4.30;99.90;;;;;;5036309;28;20038;-59
2023/11/11 04:34:13;;;;;;;6.32;2.78;;;4.30;99.90;;;;;;5035856;28;20044;-58
2023/11/11 04:36:40;;;;;;;5.47;2.60;;;4.30;99.90;;;;;;5035584;28;20569;-59
2023/11/11 04:39:08;;;;;;;7.80;2.90;;;4.30;99.90;;;;;;5035916;28;20045;-58
2023/11/11 04:41:35;;;;;;;5.85;2.60;;;4.30;99.90;;;;;;5035455;28;20045;-59
2023/11/11 04:44:02;;;;;;;6.65;2.83;;;4.30;99.90;;;;;;5035580;28;20077;-59
2023/11/11 04:46:29;;;;;;;7.35;2.95;;;4.30;99.90;;;;;;5035500;28;20048;-59
2023/11/11 04:48:57;;;;;;;6.25;2.67;;;4.30;99.90;;;;;;5035424;28;20053;-59
2023/11/11 04:51:24;;;;;;;6.13;2.78;;;4.30;99.90;;;;;;5035626;28;20045;-59
2023/11/11 04:53:51;;;;;;;6.05;2.67;;;4.30;99.90;;;;;;5035411;28;20380;-59
2023/11/11 04:56:19;;;;;;;7.15;2.60;;;4.30;99.90;;;;;;5035810;28;20556;-59
2023/11/11 04:58:46;;;;;;;8.90;2.60;;;4.30;99.90;;;;;;5035448;28;20037;-59
2023/11/11 05:01:14;;;;;;;4.72;3.00;;;4.30;99.90;;;;;;5035017;28;20041;-59
2023/11/11 05:03:41;;;;;;;7.93;3.10;;;4.30;99.90;;;;;;5017780;28;20041;-59
2023/11/11 05:06:08;;;;;;;8.70;3.38;;;4.30;99.90;;;;;;5035364;28;20455;-64
2023/11/11 05:08:35;;;;;;;5.53;2.72;;;4.20;99.90;;;;;;5035232;28;20045;-64
2023/11/11 05:11:02;;;;;;;7.82;3.13;;;4.20;99.90;;;;;;5035596;28;20041;-63
2023/11/11 05:13:31;;;;;;;5.28;2.97;;;4.20;99.90;;;;;;5034922;28;20061;-63
2023/11/11 05:16:10;;;;;;;6.35;3.20;;;4.20;99.90;;;;;;5034966;28;20045;-64
2023/11/11 05:18:37;;;;;;;5.25;2.83;;;4.20;99.90;;;;;;5017622;28;20140;-63
2023/11/11 05:21:05;;;;;;;8.38;3.85;;;4.20;99.90;;;;;;5017303;28;20402;-63
2023/11/11 05:23:32;;;;;;;5.80;2.97;;;4.30;99.90;;;;;;5034950;28;20045;-64
2023/11/11 05:25:58;;;;;;;10.43;3.20;;;4.20;99.90;;;;;;5035108;28;20512;-64
2023/11/11 05:28:25;;;;;;;7.85;3.10;;;4.20;99.90;;;;;;5034498;28;20044;-63
2023/11/11 05:30:52;;;;;;;6.63;3.15;;;4.20;99.90;;;;;;5034539;28;20045;-63
2023/11/11 05:33:19;;;;;;;5.55;2.90;;;4.20;99.90;;;;;;5034940;28;20037;-63
2023/11/11 05:35:47;;;;;;;6.05;3.00;;;4.10;99.90;;;;;;5035089;28;20041;-63
2023/11/11 05:38:14;;;;;;;6.80;3.15;;;4.10;99.90;;;;;;5034837;28;20080;-63
2023/11/11 05:40:41;;;;;;;6.97;3.25;;;4.10;99.90;;;;;;5034890;28;20041;-64
2023/11/11 05:43:08;;;;;;;4.68;3.00;;;4.10;99.90;;;;;;5034205;28;20136;-63
2023/11/11 05:45:35;;;;;;;4.18;2.67;;;4.10;99.90;;;;;;5034434;28;20057;-64
2023/11/11 05:48:02;;;;;;;5.05;2.80;;;4.20;99.90;;;;;;5017171;28;20132;-65
2023/11/11 05:50:29;;;;;;;7.43;3.20;;;4.30;99.90;;;;;;5034683;28;20506;-59
2023/11/11 05:52:56;;;;;;;7.25;3.65;;;4.30;99.90;;;;;;5034789;28;20536;-59
2023/11/11 05:55:24;;;;;;;5.05;2.85;;;4.40;99.90;;;;;;5034411;28;20045;-59
2023/11/11 05:57:51;;;;;;;7.38;2.97;;;4.40;99.90;;;;;;5033940;28;20076;-59
2023/11/11 06:00:18;;;;;;;5.72;2.85;;;4.40;99.90;;;;;;5034349;28;20046;-59
2023/11/11 06:02:45;;;;;;;6.78;2.63;;;4.40;99.90;;;;;;5033903;28;20046;-59
2023/11/11 06:05:12;;;;;;;6.22;2.72;;;4.40;99.90;;;;;;5034370;28;20120;-59
2023/11/11 06:07:39;;;;;;;4.65;2.97;;;4.40;99.90;;;;;;5034387;28;20378;-59
2023/11/11 06:10:08;;;;;;;5.07;2.70;;;4.30;99.90;;;;;;5034244;28;20033;-59
2023/11/11 06:12:35;;;;;;;5.90;2.45;;;4.30;99.90;;;;;;5034012;28;20038;-59
2023/11/11 06:15:04;;;;;;;4.20;2.58;;;4.30;99.90;;;;;;5034047;28;20048;-59
2023/11/11 06:17:31;;;;;;;9.30;3.30;;;4.30;99.90;;;;;;5034127;28;20128;-59
2023/11/11 06:19:58;;;;;;;3.70;2.33;;;4.30;99.90;;;;;;5033717;28;20499;-59
2023/11/11 06:22:25;;;;;;;4.50;2.65;;;4.30;99.90;;;;;;5034672;28;20370;-59
2023/11/11 06:24:51;;;;;;;3.90;2.53;;;4.30;99.90;;;;;;5034109;28;20076;-60
2023/11/11 06:27:18;;;;;;;5.15;2.80;;;4.30;99.90;;;;;;5033424;28;20048;-59
2023/11/11 06:29:45;;;;;;;5.55;2.60;;;4.30;99.90;;;;;;5033805;28;20077;-59
2023/11/11 06:32:12;;;;;;;6.07;2.63;;;4.30;99.90;;;;;;5033486;28;20042;-59
2023/11/11 06:34:41;;;;;;;7.07;2.40;;;4.30;99.90;;;;;;5033923;28;20120;-59
2023/11/11 06:37:08;;;;;;;8.65;2.72;;;4.20;99.90;;;;;;5033703;28;20041;-59
2023/11/11 06:39:34;;;;;;;6.85;2.60;;;4.20;99.90;;;;;;5033822;28;20044;-59
2023/11/11 06:42:02;;;;;;;4.75;2.70;;;4.20;99.90;;;;;;4999273;28;20049;-59
2023/11/11 06:44:29;;;;;;;6.88;2.88;;;4.20;99.90;;;;;;5033309;28;20064;-59
2023/11/11 06:46:56;;;;;;;5.38;2.60;;;4.20;99.90;;;;;;5032649;28;20041;-59
2023/11/11 06:49:23;;;;;;;8.32;2.88;;;4.20;99.90;;;;;;5033727;28;20455;-59
2023/11/11 06:51:49;;;;;;;5.45;2.67;;;4.20;99.90;;;;;;5033407;28;20038;-59
2023/11/11 06:54:16;;;;;;;5.90;2.60;;;4.20;99.90;;;;;;5033721;28;20038;-59
2023/11/11 06:56:43;;;;;;;8.60;3.53;;;4.20;99.90;;;;;;5033683;28;20052;-59
2023/11/11 06:59:11;;;;;;;5.50;2.80;;;4.20;99.90;;;;;;5033741;28;20053;-58
2023/11/11 07:01:39;;;;;;;6.80;2.90;;;4.20;99.90;;;;;;5033855;28;20041;-59
2023/11/11 07:04:07;;;;;;;6.28;2.78;;;4.20;99.90;;;;;;5034001;28;20133;-59
2023/11/11 07:06:34;;;;;;;5.85;2.47;;;4.20;99.90;;;;;;5033027;28;20041;-59
2023/11/11 07:09:01;;;;;;;5.32;2.75;;;4.20;99.90;;;;;;5032997;28;20041;-58
2023/11/11 07:11:28;;;;;;;7.43;2.63;;;4.20;99.90;;;;;;5033132;28;20042;-59
2023/11/11 07:13:55;;;;;;;8.52;3.13;;;4.20;99.90;;;;;;5033517;28;20499;-58
2023/11/11 07:16:22;;;;;;;9.07;3.10;;;4.20;99.90;;;;;;5033512;28;20053;-59
2023/11/11 07:18:49;;;;;;;6.20;2.88;;;4.30;99.90;;;;;;5033131;28;20053;-59
2023/11/11 07:21:16;;;;;;;4.35;2.60;;;4.30;99.90;;;;;;5032973;28;20045;-59
2023/11/11 07:23:43;;;;;;;8.95;2.90;;;4.30;99.90;;;;;;5033549;28;20068;-58
2023/11/11 07:26:11;;;;;;;6.50;2.58;;;4.30;99.90;;;;;;5033253;28;20034;-59
2023/11/11 07:28:38;;;;;;;6.28;2.65;;;4.30;99.90;;;;;;5032859;28;20038;-59
2023/11/11 07:31:05;;;;;;;6.35;2.75;;;4.30;99.90;;;;;;5033165;28;20038;-59
2023/11/11 07:33:32;;;;;;;7.03;2.65;;;4.40;99.90;;;;;;5032959;28;20487;-59
2023/11/11 07:35:59;;;;;;;6.57;2.60;;;4.40;99.90;;;;;;5033521;28;20378;-59
2023/11/11 07:38:26;;;;;;;12.23;2.72;;;4.40;99.90;;;;;;5032892;28;20060;-59
2023/11/11 07:40:53;;;;;;;6.25;2.75;;;4.40;99.90;;;;;;5033397;28;20068;-59
2023/11/11 07:43:19;;;;;;;6.65;2.72;;;4.40;99.90;;;;;;5032716;28;20072;-59
2023/11/11 07:45:48;;;;;;;6.15;3.00;;;4.40;99.90;;;;;;5033095;28;20366;-59
2023/11/11 07:48:15;;;;;;;5.10;2.33;;;4.40;99.90;;;;;;5032610;28;20383;-59
2023/11/11 07:50:42;;;;;;;5.22;2.42;;;4.40;99.90;;;;;;5032857;28;20042;-59
2023/11/11 07:53:10;;;;;;;5.25;2.30;;;4.50;99.90;;;;;;5033104;28;20033;-59
2023/11/11 07:55:37;;;;;;;6.97;2.47;;;4.50;99.90;;;;;;5033101;28;20124;-59
2023/11/11 07:58:04;;;;;;;7.68;2.72;;;4.50;99.90;;;;;;5033155;28;20037;-59
2023/11/11 08:00:34;;;;;;;7.55;2.95;;;4.50;99.90;;;;;;5018998;28;20049;-59
2023/11/11 08:03:02;;;;;;;7.57;2.95;;;4.50;99.90;;;;;;5036218;28;20048;-59
2023/11/11 08:05:29;;;;;;;6.38;2.47;;;4.60;99.90;;;;;;5036504;28;20045;-59
2023/11/11 08:07:56;;;;;;;5.07;3.05;;;4.60;99.90;;;;;;5036199;28;20079;-59
2023/11/11 08:10:40;;;;;;;5.32;2.58;;;4.60;99.90;;;;;;5036450;28;20041;-59
2023/11/11 08:13:07;;;;;;;5.65;2.63;;;4.60;99.90;;;;;;5036044;28;20041;-59
2023/11/11 08:15:34;;;;;;;7.32;2.83;;;4.70;99.90;;;;;;5036395;28;20386;-59
2023/11/11 08:18:01;;;;;;;8.88;2.97;;;4.70;99.90;;;;;;5018054;28;20136;-59
2023/11/11 08:20:28;;;;;;;9.82;2.90;;;4.70;99.90;;;;;;5031240;28;20695;-58
2023/11/11 08:22:54;;;;;;;5.90;2.88;;;4.80;99.90;;;;;;5015620;28;20053;-60
2023/11/11 08:25:22;;;;;;;7.22;2.83;;;4.80;99.90;;;;;;5016494;28;20046;-60
2023/11/11 08:27:50;;;;;;;8.75;2.80;;;4.80;99.90;;;;;;5017151;28;20045;-59
2023/11/11 08:30:17;;;;;;;6.65;3.30;;;4.80;99.90;;;;;;5017745;28;20557;-64
2023/11/11 08:32:44;;;;;;;6.95;2.85;;;4.90;99.90;;;;;;5017822;28;20092;-65
2023/11/11 08:35:15;;;;;;;5.35;2.80;;;4.90;99.90;;;;;;5015750;28;20041;-64
2023/11/11 08:37:43;;;;;;;7.72;3.17;;;5.00;99.90;;;;;;5016209;28;20100;-64
2023/11/11 08:40:10;;;;;;;8.55;3.45;;;5.00;99.90;;;;;;5035517;28;20454;-64
2023/11/11 08:42:39;;;;;;;6.32;3.20;;;5.10;99.90;;;;;;5035807;28;20068;-63
2023/11/11 08:45:06;;;;;;;6.80;3.05;;;5.10;99.90;;;;;;5035969;28;20049;-64
2023/11/11 08:47:33;;;;;;;11.23;3.22;;;5.20;99.90;;;;;;5035253;28;20063;-64
2023/11/11 08:50:06;;;;;;;10.80;3.10;;;5.20;99.90;;;;;;5035300;28;20128;-64
2023/11/11 08:52:41;;;;;;;6.05;3.00;;;5.20;99.90;;;;;;5036445;28;20041;-64
2023/11/11 08:55:08;;;;;;;5.50;3.15;;;5.20;99.90;;;;;;5035814;28;20053;-64
2023/11/11 08:57:36;;;;;;;7.63;3.15;;;5.30;99.90;;;;;;5035736;28;20395;-64
2023/11/11 09:00:07;;;;;;;8.55;2.90;;;5.30;99.90;;;;;;5035784;28;20045;-63
2023/11/11 09:02:34;;;;;;;9.38;3.17;;;5.40;99.90;;;;;;5035322;28;20041;-64
2023/11/11 09:05:01;;;;;;;8.13;2.58;;;5.40;99.90;;;;;;5034818;28;20505;-64
2023/11/11 09:07:28;;;;;;;6.15;2.75;;;5.50;99.90;;;;;;5033997;28;20049;-63
2023/11/11 09:09:55;;;;;;;6.50;2.97;;;5.50;99.90;;;;;;5034398;28;20418;-63
2023/11/11 09:12:23;;;;;;;6.93;3.30;;;5.50;99.90;;;;;;5034931;28;20049;-63
2023/11/11 09:14:50;;;;;;;5.43;2.80;;;5.60;99.90;;;;;;5034359;28;20037;-63
2023/11/11 09:17:20;;;;;;;6.13;3.42;;;5.70;99.90;;;;;;5034479;28;20756;-64
2023/11/11 09:19:47;;;;;;;5.25;2.85;;;5.70;99.90;;;;;;5035166;28;20041;-63
2023/11/11 09:22:14;;;;;;;7.40;2.85;;;5.70;99.90;;;;;;5034013;28;20045;-63
2023/11/11 09:24:41;;;;;;;8.48;3.08;;;5.80;99.90;;;;;;5033599;28;20069;-64
2023/11/11 09:27:08;;;;;;;6.00;2.67;;;5.80;99.90;;;;;;5033643;28;20046;-63
2023/11/11 09:29:38;;;;;;;5.80;2.75;;;5.90;99.90;;;;;;5034134;28;20041;-63
2023/11/11 09:32:05;;;;;;;6.28;2.83;;;6.00;99.90;;;;;;5034535;28;20051;-64
2023/11/11 09:34:32;;;;;;;5.25;2.70;;;6.00;99.90;;;;;;5034710;28;20427;-65
2023/11/11 09:36:59;;;;;;;4.68;2.17;;;6.10;99.90;;;;;;5034438;28;20128;-65
2023/11/11 09:39:27;;;;;;;6.25;2.50;;;6.10;99.90;;;;;;5034703;28;20096;-65
2023/11/11 09:41:54;;;;;;;4.55;1.90;;;6.20;99.90;;;;;;5034921;28;20099;-65
2023/11/11 09:44:22;;;;;;;6.53;2.40;;;6.30;99.90;;;;;;5034281;28;20430;-66
2023/11/11 09:46:52;;;;;;;6.65;2.40;;;6.30;99.90;;;;;;5034123;28;20044;-65
2023/11/11 09:49:19;;;;;;;5.32;2.42;;;6.40;99.90;;;;;;5034585;28;20545;-65
2023/11/11 09:51:47;;;;;;;4.13;2.30;;;6.40;99.90;;;;;;5016870;28;20045;-65
2023/11/11 09:54:14;;;;;;;6.38;2.22;;;6.50;99.90;;;;;;5034038;28;20037;-65
2023/11/11 09:56:42;;;;;;;5.75;2.30;;;6.50;99.90;;;;;;5034261;28;20060;-65
2023/11/11 09:59:12;;;;;;;4.18;2.40;;;6.60;99.90;;;;;;5033843;28;20528;-65
2023/11/11 10:01:39;;;;;;;7.05;2.35;;;6.60;99.90;;;;;;5016494;28;20340;-65
2023/11/11 10:04:06;;;;;;;6.57;2.70;;;6.60;99.90;;;;;;5016853;28;20527;-65
2023/11/11 10:06:33;;;;;;;6.93;2.30;;;6.70;99.90;;;;;;5033866;28;20042;-65
2023/11/11 10:08:59;;;;;;;6.60;2.58;;;6.70;99.90;;;;;;5033793;28;20378;-65
2023/11/11 10:11:29;;;;;;;7.10;2.53;;;6.80;99.90;;;;;;5034021;28;20038;-66
2023/11/11 10:13:55;;;;;;;6.00;2.63;;;6.80;99.90;;;;;;5033803;28;20042;-65
2023/11/11 10:16:24;;;;;;;5.93;2.88;;;6.90;99.90;;;;;;5034098;28;20124;-66
2023/11/11 10:18:52;;;;;;;4.57;2.13;;;6.90;99.90;;;;;;5016165;28;20383;-65
2023/11/11 10:21:20;;;;;;;4.30;2.22;;;6.90;99.90;;;;;;5033446;28;20084;-60
2023/11/11 10:23:48;;;;;;;7.43;2.45;;;6.90;99.90;;;;;;5034125;28;20076;-60
2023/11/11 10:26:15;;;;;;;6.53;2.47;;;7.00;99.90;;;;;;5033973;28;20060;-60
2023/11/11 10:28:42;;;;;;;7.50;2.67;;;7.00;99.90;;;;;;5015837;28;20049;-60
2023/11/11 10:31:09;;;;;;;5.85;2.50;;;7.10;99.90;;;;;;5015900;28;20068;-60
2023/11/11 10:33:48;;;;;;;4.72;2.30;;;7.10;99.90;;;;;;5033771;28;20052;-60
2023/11/11 10:36:15;;;;;;;8.00;2.50;;;7.10;99.90;;;;;;5033927;28;20347;-61
2023/11/11 10:38:42;;;;;;;5.60;2.67;;;7.20;99.90;;;;;;5033193;28;20044;-59
2023/11/11 10:41:09;;;;;;;6.75;2.70;;;7.20;99.90;;;;;;5033606;28;20050;-59
2023/11/11 10:43:36;;;;;;;6.72;3.22;;;7.30;99.90;;;;;;5033555;28;20479;-59
2023/11/11 10:46:03;;;;;;;8.85;2.80;;;7.30;99.90;;;;;;5033330;28;20042;-59
2023/11/11 10:48:30;;;;;;;4.82;2.58;;;7.40;99.90;;;;;;5015785;28;20074;-59
2023/11/11 10:50:57;;;;;;;8.02;2.75;;;7.40;99.90;;;;;;5033129;28;20049;-59
2023/11/11 10:53:27;;;;;;;6.65;2.63;;;7.50;99.90;;;;;;5015937;28;20539;-59
2023/11/11 10:55:54;;;;;;;7.97;2.72;;;7.50;99.90;;;;;;5033203;28;20037;-59
2023/11/11 10:58:21;;;;;;;5.93;2.67;;;7.60;99.90;;;;;;5033373;28;20402;-64
2023/11/11 11:00:48;;;;;;;7.50;2.20;;;7.70;99.90;;;;;;5015688;28;20053;-65
2023/11/11 11:03:15;;;;;;;7.00;2.80;;;7.70;99.90;;;;;;5033831;28;20049;-64
2023/11/11 11:05:42;;;;;;;9.70;2.33;;;7.70;99.90;;;;;;5033111;28;20128;-64
2023/11/11 11:08:10;;;;;;;8.50;2.53;;;7.80;99.90;;;;;;5033116;28;20034;-65
2023/11/11 11:10:39;;;;;;;7.35;3.00;;;7.90;99.90;;;;;;5033320;28;20099;-64
2023/11/11 11:13:08;;;;;;;6.97;2.42;;;8.00;99.90;;;;;;5033100;28;20033;-64
2023/11/11 11:15:34;;;;;;;6.63;2.53;;;8.00;99.90;;;;;;5033335;28;20116;-65
2023/11/11 11:18:01;;;;;;;5.47;2.25;;;8.00;99.90;;;;;;5015497;28;20091;-65
2023/11/11 11:20:30;;;;;;;7.90;3.17;;;8.00;99.90;;;;;;5033529;28;20044;-65
2023/11/11 11:22:57;;;;;;;4.90;2.40;;;8.10;99.90;;;;;;5033000;28;20037;-65
2023/11/11 11:25:24;;;;;;;6.90;2.33;;;8.20;99.90;;;;;;5033035;28;20057;-66
2023/11/11 11:27:51;;;;;;;7.03;2.20;;;8.20;99.90;;;;;;5032854;28;20044;-65
2023/11/11 11:30:18;;;;;;;5.60;2.00;;;8.20;99.90;;;;;;5033523;28;20036;-65
2023/11/11 11:32:45;;;;;;;8.13;2.30;;;8.30;99.90;;;;;;5034149;28;20057;-65
2023/11/11 11:35:11;;;;;;;5.07;2.10;;;8.40;99.90;;;;;;5036862;28;20029;-65
2023/11/11 11:37:38;;;;;;;4.90;2.10;;;8.40;99.90;;;;;;5036998;28;20479;-65
2023/11/11 11:40:08;;;;;;;5.40;2.20;;;8.40;99.90;;;;;;5036896;28;20053;-65
2023/11/11 11:42:36;;;;;;;5.95;2.10;;;8.50;99.90;;;;;;5018732;28;20053;-64
2023/11/11 11:45:02;;;;;;;5.53;2.10;;;8.50;99.90;;;;;;5036854;28;20052;-65
2023/11/11 11:47:32;;;;;;;5.63;2.10;;;8.50;99.90;;;;;;5036923;28;20060;-65
2023/11/11 11:49:59;;;;;;;5.00;1.60;;;8.50;99.90;;;;;;5036678;28;20041;-65
2023/11/11 11:52:26;;;;;;;3.92;1.90;;;8.60;99.90;;;;;;5036862;28;20414;-65
2023/11/11 11:54:53;;;;;;;3.92;1.67;;;8.70;99.90;;;;;;5036806;28;20045;-65
2023/11/11 11:57:22;;;;;;;4.75;1.80;;;8.70;99.90;;;;;;5036414;28;20091;-65
2023/11/11 11:59:49;;;;;;;4.43;1.90;;;8.70;99.90;;;;;;5036632;28;20048;-66
2023/11/11 12:02:16;;;;;;;6.68;1.92;;;8.70;99.90;;;;;;5036482;28;20488;-65
2023/11/11 12:04:43;;;;;;;5.80;1.73;;;8.80;99.90;;;;;;5036308;28;20427;-65
2023/11/11 12:07:12;;;;;;;3.97;1.60;;;8.80;99.90;;;;;;5018666;28;20049;-65
2023/11/11 12:09:40;;;;;;;4.63;1.60;;;8.80;99.90;;;;;;5036504;28;20057;-65
2023/11/11 12:12:07;;;;;;;4.80;1.50;;;8.90;99.90;;;;;;5036655;28;20044;-65
2023/11/11 12:14:34;;;;;;;5.50;2.20;;;8.90;99.90;;;;;;5036096;28;20072;-66
2023/11/11 12:17:01;;;;;;;4.47;1.88;;;9.00;99.90;;;;;;5036037;28;20041;-65
2023/11/11 12:19:28;;;;;;;7.88;1.65;;;9.00;99.90;;;;;;5036053;28;20390;-65
2023/11/11 12:21:54;;;;;;;6.15;1.75;;;8.90;99.90;;;;;;5036504;28;20289;-65
2023/11/11 12:24:25;;;;;;;5.43;1.60;;;9.00;99.90;;;;;;5036655;28;20049;-65
2023/11/11 12:26:52;;;;;;;5.53;1.70;;;9.00;99.90;;;;;;5035642;28;20551;-65
2023/11/11 12:29:19;;;;;;;4.50;1.77;;;9.00;99.90;;;;;;5036225;28;20041;-65
2023/11/11 12:31:46;;;;;;;5.75;1.70;;;9.00;99.90;;;;;;5036203;28;20045;-65
2023/11/11 12:34:13;;;;;;;6.47;1.70;;;9.00;99.90;;;;;;5035983;28;20042;-65
2023/11/11 12:36:40;;;;;;;6.30;2.88;;;9.00;99.90;;;;;;5035999;28;20042;-65
2023/11/11 12:39:11;;;;;;;3.08;1.60;;;9.10;99.90;;;;;;5036107;28;20533;-65
2023/11/11 12:41:38;;;;;;;4.22;1.88;;;9.10;99.90;;;;;;5018312;28;20095;-65
2023/11/11 12:44:05;;;;;;;4.88;1.80;;;9.10;99.90;;;;;;5034955;28;20045;-64
2023/11/11 12:46:32;;;;;;;3.40;1.73;;;9.10;99.90;;;;;;5035569;28;20463;-65
2023/11/11 12:49:00;;;;;;;6.15;2.20;;;9.10;99.90;;;;;;5035727;28;20049;-65
2023/11/11 12:51:27;;;;;;;5.13;2.08;;;9.20;99.90;;;;;;5018029;28;20088;-65
2023/11/11 12:53:55;;;;;;;6.03;2.10;;;9.30;99.90;;;;;;5035579;28;20048;-65
2023/11/11 12:56:23;;;;;;;5.35;1.70;;;9.30;99.90;;;;;;5035474;28;20114;-63
2023/11/11 12:58:50;;;;;;;3.83;1.55;;;9.30;99.90;;;;;;5035279;28;20043;-64